Terminal Aerodrome Forecast
Issued by NWS

Home | Current Version | Previous Version | Text Only | Print | Product List | Glossary On
Versions: 1 2 3 4 5 6 7 8 9 10 11 12 13 14 15 16 17 18
000
FTUS46 KSGX 070520
TAFONT
TAF
KONT 070520Z 0706/0812 26006KT P6SM SCT015
     FM070630 VRB04KT P6SM OVC015
     FM071400 VRB04KT 5SM HZ OVC015
     FM071800 25006KT P6SM FEW020
     FM072100 25012G18KT P6SM SKC
     FM080500 VRB04KT P6SM OVC018=

USA.gov is the U.S. government's official web portal to all federal, state and local government web resources and services.